Time;durP1;ratioP1;P1;durP2;ratioP2;P2;SDS_P1;SDS_P2;PMS_P1;PMS_P2;Temp;Humidity;BMP_temperature;BMP_pressure;BME280_temperature;BME280_humidity;BME280_pressure;Samples;Min_cycle;Max_cycle;Signal;HPM_P1;HPM_P2
2022/11/18 00:01:09;;;;;;;;;;;9.20;99.90;;;;;;4984515;28;20096;-72
2022/11/18 00:03:35;;;;;;;;;;;9.20;99.90;;;;;;4983800;28;19957;-72
2022/11/18 00:06:01;;;;;;;;;;;9.30;99.90;;;;;;4983032;28;20090;-73
2022/11/18 00:08:27;;;;;;;;;;;9.30;99.90;;;;;;4983330;28;19920;-72
2022/11/18 00:10:53;;;;;;;;;;;9.20;99.90;;;;;;4984331;28;19910;-72
2022/11/18 00:16:07;;;;;;;;;;;9.10;99.90;;;;;;4984311;28;19933;-73
2022/11/18 00:18:32;;;;;;;;;;;9.20;99.90;;;;;;4983744;28;19917;-73
2022/11/18 00:21:02;;;;;;;;;;;9.20;99.90;;;;;;4984334;28;19910;-73
2022/11/18 00:23:28;;;;;;;;;;;9.20;99.90;;;;;;4984523;28;20005;-73
2022/11/18 00:25:54;;;;;;;;;;;9.20;99.90;;;;;;4984156;28;20133;-72
2022/11/18 00:28:19;;;;;;;;;;;9.20;99.90;;;;;;4983778;28;19917;-72
2022/11/18 00:30:45;;;;;;;;;;;9.20;99.90;;;;;;4984224;28;19956;-73
2022/11/18 00:33:11;;;;;;;;;;;9.20;99.90;;;;;;4983962;28;19936;-72
2022/11/18 00:35:36;;;;;;;;;;;9.20;99.90;;;;;;4984021;28;19910;-72
2022/11/18 00:38:02;;;;;;;;;;;9.20;99.90;;;;;;4983809;28;19977;-72
2022/11/18 00:40:28;;;;;;;;;;;9.20;99.90;;;;;;4984174;28;19910;-72
2022/11/18 00:42:55;;;;;;;;;;;9.20;99.90;;;;;;4982820;28;19918;-72
2022/11/18 00:45:21;;;;;;;;;;;9.20;99.90;;;;;;4984049;28;20153;-73
2022/11/18 00:47:46;;;;;;;;;;;9.20;99.90;;;;;;4982382;28;20153;-72
2022/11/18 00:50:12;;;;;;;;;;;9.10;99.90;;;;;;4983716;28;19973;-72
2022/11/18 00:52:37;;;;;;;;;;;9.10;99.90;;;;;;4982608;28;19957;-73
2022/11/18 00:55:03;;;;;;;;;;;9.10;99.90;;;;;;4983850;28;19968;-72
2022/11/18 00:57:29;;;;;;;;;;;9.00;99.90;;;;;;4983307;28;19918;-72
2022/11/18 00:59:55;;;;;;;;;;;9.00;99.90;;;;;;4983451;28;19969;-72
2022/11/18 01:02:20;;;;;;;;;;;8.90;99.90;;;;;;4983614;28;20228;-73
2022/11/18 01:04:46;;;;;;;;;;;8.90;99.90;;;;;;4983368;28;19952;-73
2022/11/18 01:07:12;;;;;;;;;;;8.90;99.90;;;;;;4983090;28;20117;-72
2022/11/18 01:09:37;;;;;;;;;;;8.90;99.90;;;;;;4983546;28;20105;-73
2022/11/18 01:14:47;;;;;;;;;;;8.90;99.90;;;;;;4983666;28;19917;-73
2022/11/18 01:17:13;;;;;;;;;;;8.80;99.90;;;;;;4983258;28;20172;-74
2022/11/18 01:19:39;;;;;;;;;;;8.80;99.90;;;;;;4983332;28;20099;-72
2022/11/18 01:22:04;;;;;;;;;;;8.80;99.90;;;;;;4983453;28;19933;-73
2022/11/18 01:24:31;;;;;;;;;;;8.80;99.90;;;;;;4983349;28;19910;-73
2022/11/18 01:26:56;;;;;;;;;;;8.80;99.90;;;;;;4998045;28;19961;-73
2022/11/18 01:29:22;;;;;;;;;;;8.80;99.90;;;;;;4983349;28;20113;-73
2022/11/18 01:31:47;;;;;;;;;;;8.80;99.90;;;;;;4983269;28;19910;-73
2022/11/18 01:34:13;;;;;;;;;;;8.80;99.90;;;;;;4983229;28;19945;-73
2022/11/18 01:36:39;;;;;;;;;;;8.80;99.90;;;;;;4982789;28;19918;-73
2022/11/18 01:39:04;;;;;;;;;;;8.80;99.90;;;;;;4983019;28;19961;-73
2022/11/18 01:41:30;;;;;;;;;;;8.80;99.90;;;;;;4983220;28;19913;-73
2022/11/18 01:43:56;;;;;;;;;;;8.80;99.90;;;;;;4982500;28;19911;-73
2022/11/18 01:46:23;;;;;;;;;;;8.70;99.90;;;;;;4981672;28;20158;-73
2022/11/18 01:48:52;;;;;;;;;;;8.70;99.90;;;;;;4981885;28;19925;-73
2022/11/18 01:51:20;;;;;;;;;;;8.70;99.90;;;;;;4965878;28;20117;-73
2022/11/18 01:53:50;;;;;;;;;;;8.70;99.90;;;;;;4965895;28;19914;-72
2022/11/18 01:56:24;;;;;;;;;;;8.70;99.90;;;;;;4965717;28;20117;-72
2022/11/18 01:58:54;;;;;;;;;;;8.70;99.90;;;;;;4981695;28;19939;-72
2022/11/18 02:01:20;;;;;;;;;;;8.70;99.90;;;;;;4966029;28;19988;-73
2022/11/18 02:03:45;;;;;;;;;;;8.70;99.90;;;;;;4983036;28;19933;-73
2022/11/18 02:06:11;;;;;;;;;;;8.70;99.90;;;;;;4965200;28;19937;-74
2022/11/18 02:08:38;;;;;;;;;;;8.70;99.90;;;;;;4965640;28;19917;-74
2022/11/18 02:11:04;;;;;;;;;;;8.70;99.90;;;;;;4966030;28;20434;-74
2022/11/18 02:13:31;;;;;;;;;;;8.70;99.90;;;;;;4982301;28;19916;-75
2022/11/18 02:16:14;;;;;;;;;;;8.60;99.90;;;;;;4981749;28;19934;-75
2022/11/18 02:19:00;;;;;;;;;;;8.60;99.90;;;;;;4965895;28;19910;-74
2022/11/18 02:21:44;;;;;;;;;;;8.60;99.90;;;;;;4965782;28;19910;-75
2022/11/18 02:24:40;;;;;;;;;;;8.60;99.90;;;;;;4982760;28;20368;-75
2022/11/18 02:27:15;;;;;;;;;;;8.50;99.90;;;;;;4981138;28;19918;-75
2022/11/18 02:29:59;;;;;;;;;;;8.50;99.90;;;;;;4982688;28;19910;-75
2022/11/18 02:32:47;;;;;;;;;;;8.50;99.90;;;;;;4982715;28;19957;-75
2022/11/18 02:35:15;;;;;;;;;;;8.40;99.90;;;;;;4966529;28;20227;-74
2022/11/18 02:37:46;;;;;;;;;;;8.50;99.90;;;;;;4981134;28;19964;-74
2022/11/18 02:40:14;;;;;;;;;;;8.40;99.90;;;;;;4981509;28;20128;-74
2022/11/18 02:42:41;;;;;;;;;;;8.40;99.90;;;;;;4965571;28;19910;-73
2022/11/18 02:45:09;;;;;;;;;;;8.40;99.90;;;;;;4962063;29;19911;-74
2022/11/18 02:47:35;;;;;;;;;;;8.40;99.90;;;;;;4962116;28;20005;-74
2022/11/18 02:50:04;;;;;;;;;;;8.30;99.90;;;;;;4961845;29;19911;-73
2022/11/18 02:52:30;;;;;;;;;;;8.30;99.90;;;;;;4962462;28;19982;-74
2022/11/18 02:54:55;;;;;;;;;;;8.30;99.90;;;;;;4962127;28;20110;-74
2022/11/18 02:57:21;;;;;;;;;;;8.30;99.90;;;;;;4964276;29;19914;-74
2022/11/18 02:59:47;;;;;;;;;;;8.20;99.90;;;;;;4965567;29;19997;-74
2022/11/18 03:02:14;;;;;;;;;;;8.20;99.90;;;;;;4965441;29;19919;-74
2022/11/18 03:04:40;;;;;;;;;;;8.30;99.90;;;;;;4965356;29;20102;-73
2022/11/18 03:07:13;;;;;;;;;;;8.30;99.90;;;;;;4964796;29;19921;-73
2022/11/18 03:09:41;;;;;;;;;;;8.20;99.90;;;;;;4965279;29;19910;-73
2022/11/18 03:12:36;;;;;;;;;;;8.20;99.90;;;;;;4949326;29;19910;-74
2022/11/18 03:15:05;;;;;;;;;;;8.20;99.90;;;;;;4981264;28;20004;-74
2022/11/18 03:17:43;;;;;;;;;;;8.20;99.90;;;;;;4985157;28;20109;-74
2022/11/18 03:20:27;;;;;;;;;;;8.20;99.90;;;;;;4985702;28;20109;-74
2022/11/18 03:22:52;;;;;;;;;;;8.20;99.90;;;;;;4985780;28;19956;-74
2022/11/18 03:25:29;;;;;;;;;;;8.20;99.90;;;;;;4985497;28;19910;-73
2022/11/18 03:28:14;;;;;;;;;;;8.20;99.90;;;;;;4984153;28;19914;-74
2022/11/18 03:30:43;;;;;;;;;;;8.20;99.90;;;;;;4984246;28;19969;-73
2022/11/18 03:33:11;;;;;;;;;;;8.20;99.90;;;;;;4968355;28;19932;-73
2022/11/18 03:35:38;;;;;;;;;;;8.20;99.90;;;;;;4968052;28;19934;-75
2022/11/18 03:38:10;;;;;;;;;;;8.20;99.90;;;;;;4967698;28;19914;-74
2022/11/18 03:40:36;;;;;;;;;;;8.20;99.90;;;;;;4968664;28;19976;-74
2022/11/18 03:43:12;;;;;;;;;;;8.20;99.90;;;;;;4968250;28;19985;-74
2022/11/18 03:45:44;;;;;;;;;;;8.20;99.90;;;;;;4949918;29;19953;-74
2022/11/18 03:48:24;;;;;;;;;;;8.20;99.90;;;;;;4948382;29;19917;-74
2022/11/18 03:50:52;;;;;;;;;;;8.30;99.90;;;;;;4949786;29;19910;-73
2022/11/18 03:53:17;;;;;;;;;;;8.30;99.90;;;;;;4964690;29;20263;-74
2022/11/18 03:55:47;;;;;;;;;;;8.40;99.90;;;;;;4964615;29;20027;-73
2022/11/18 03:58:21;;;;;;;;;;;8.30;99.90;;;;;;4964440;29;19949;-73
2022/11/18 04:00:48;;;;;;;;;;;8.30;99.90;;;;;;4964421;29;20177;-74
2022/11/18 04:03:14;;;;;;;;;;;8.30;99.90;;;;;;4964358;29;19937;-75
2022/11/18 04:05:41;;;;;;;;;;;8.30;99.90;;;;;;4965243;28;19930;-74
2022/11/18 04:08:12;;;;;;;;;;;8.30;99.90;;;;;;4947520;29;20224;-74
2022/11/18 04:10:42;;;;;;;;;;;8.30;99.90;;;;;;4948772;29;19919;-73
2022/11/18 04:13:20;;;;;;;;;;;8.30;99.90;;;;;;4948534;28;20128;-73
2022/11/18 04:15:46;;;;;;;;;;;8.30;99.90;;;;;;4984962;28;19995;-74
2022/11/18 04:18:11;;;;;;;;;;;8.30;99.90;;;;;;4982669;28;19910;-74
2022/11/18 04:20:37;;;;;;;;;;;8.20;99.90;;;;;;4984341;28;19952;-74
2022/11/18 04:23:03;;;;;;;;;;;8.20;99.90;;;;;;4984564;28;20205;-75
2022/11/18 04:25:29;;;;;;;;;;;8.30;99.90;;;;;;4983139;28;19917;-74
2022/11/18 04:27:55;;;;;;;;;;;8.30;99.90;;;;;;4983908;28;19949;-74
2022/11/18 04:30:20;;;;;;;;;;;8.30;99.90;;;;;;4983216;28;19910;-73
2022/11/18 04:32:46;;;;;;;;;;;8.30;99.90;;;;;;4984308;28;19910;-73
2022/11/18 04:35:12;;;;;;;;;;;8.30;99.90;;;;;;4984043;28;19925;-74
2022/11/18 04:37:37;;;;;;;;;;;8.40;99.90;;;;;;4982695;28;19921;-75
2022/11/18 04:40:03;;;;;;;;;;;8.30;99.90;;;;;;4984047;28;19910;-74
2022/11/18 04:42:29;;;;;;;;;;;8.40;99.90;;;;;;4982940;28;19945;-74
2022/11/18 04:44:55;;;;;;;;;;;8.40;99.90;;;;;;4984322;28;19910;-74
2022/11/18 04:47:20;;;;;;;;;;;8.40;99.90;;;;;;4982305;28;20164;-74
2022/11/18 04:49:46;;;;;;;;;;;8.40;99.90;;;;;;4983956;28;19910;-74
2022/11/18 04:52:12;;;;;;;;;;;8.40;99.90;;;;;;4983688;28;19925;-74
2022/11/18 04:54:38;;;;;;;;;;;8.40;99.90;;;;;;4982636;28;19918;-75
2022/11/18 04:57:03;;;;;;;;;;;8.40;99.90;;;;;;4983576;28;20146;-74
2022/11/18 04:59:29;;;;;;;;;;;8.40;99.90;;;;;;4982822;28;19932;-75
2022/11/18 05:01:55;;;;;;;;;;;8.50;99.90;;;;;;4982862;28;20044;-74
2022/11/18 05:04:23;;;;;;;;;;;8.40;99.90;;;;;;4982703;28;19910;-74
2022/11/18 05:06:48;;;;;;;;;;;8.30;99.90;;;;;;4982007;28;20213;-73
2022/11/18 05:09:14;;;;;;;;;;;8.40;99.90;;;;;;4983571;28;20006;-75
2022/11/18 05:14:25;;;;;;;;;;;8.30;99.90;;;;;;4983661;28;19917;-75
2022/11/18 05:16:51;;;;;;;;;;;8.30;99.90;;;;;;4982327;28;20160;-74
2022/11/18 05:19:17;;;;;;;;;;;8.30;99.90;;;;;;4981619;28;19918;-75
2022/11/18 05:21:43;;;;;;;;;;;8.40;99.90;;;;;;4982877;28;19928;-74
2022/11/18 05:24:09;;;;;;;;;;;8.30;99.90;;;;;;4983261;28;19949;-75
2022/11/18 05:26:34;;;;;;;;;;;8.40;99.90;;;;;;4981908;28;19961;-75
2022/11/18 05:29:00;;;;;;;;;;;8.40;99.90;;;;;;4982928;28;19914;-74
2022/11/18 05:31:26;;;;;;;;;;;8.40;99.90;;;;;;4982152;28;19922;-73
2022/11/18 05:33:51;;;;;;;;;;;8.40;99.90;;;;;;4996902;28;20194;-74
2022/11/18 05:36:18;;;;;;;;;;;8.40;99.90;;;;;;4981201;28;19945;-73
2022/11/18 05:38:43;;;;;;;;;;;8.40;99.90;;;;;;4982164;28;19914;-74
2022/11/18 05:41:09;;;;;;;;;;;8.40;99.90;;;;;;4976333;28;20105;-73
2022/11/18 05:43:35;;;;;;;;;;;8.40;99.90;;;;;;4978093;28;19914;-74
2022/11/18 05:46:01;;;;;;;;;;;8.40;99.90;;;;;;4981056;28;19922;-74
2022/11/18 05:48:26;;;;;;;;;;;8.40;99.90;;;;;;4982756;28;19914;-74
2022/11/18 05:50:53;;;;;;;;;;;8.40;99.90;;;;;;4982871;28;20024;-74
2022/11/18 05:53:19;;;;;;;;;;;8.40;99.90;;;;;;4965741;28;20146;-74
2022/11/18 05:56:05;;;;;;;;;;;8.40;99.90;;;;;;4982160;28;19910;-73
2022/11/18 05:58:30;;;;;;;;;;;8.50;99.90;;;;;;4967962;28;19910;-74
2022/11/18 06:00:59;;;;;;;;;;;8.50;99.90;;;;;;4983211;28;19917;-74
2022/11/18 06:03:26;;;;;;;;;;;8.50;99.90;;;;;;4982143;28;19910;-74
2022/11/18 06:05:55;;;;;;;;;;;8.50;99.90;;;;;;4981700;28;19933;-74
2022/11/18 06:08:22;;;;;;;;;;;8.40;99.90;;;;;;4981772;28;19910;-75
2022/11/18 06:10:47;;;;;;;;;;;8.50;99.90;;;;;;4983108;28;19997;-74
2022/11/18 06:13:16;;;;;;;;;;;8.40;99.90;;;;;;4965674;28;20158;-74
2022/11/18 06:15:42;;;;;;;;;;;8.50;99.90;;;;;;4981766;28;19922;-74
2022/11/18 06:18:27;;;;;;;;;;;8.50;99.90;;;;;;4980899;28;20146;-74
2022/11/18 06:20:55;;;;;;;;;;;8.50;99.90;;;;;;4981527;28;20366;-74
2022/11/18 06:23:21;;;;;;;;;;;8.50;99.90;;;;;;4981202;28;19934;-74
2022/11/18 06:25:52;;;;;;;;;;;8.50;99.90;;;;;;4981471;28;19978;-74
2022/11/18 06:28:46;;;;;;;;;;;8.50;99.90;;;;;;4950167;28;19918;-73
2022/11/18 06:31:11;;;;;;;;;;;8.50;99.90;;;;;;4984042;28;20040;-73
2022/11/18 06:33:37;;;;;;;;;;;8.50;99.90;;;;;;4986150;28;19926;-74
2022/11/18 06:36:03;;;;;;;;;;;8.50;99.90;;;;;;4986068;28;19929;-73
2022/11/18 06:38:28;;;;;;;;;;;8.40;99.90;;;;;;4986216;28;19914;-74
2022/11/18 06:41:00;;;;;;;;;;;8.50;99.90;;;;;;4986383;28;19910;-73
2022/11/18 06:43:40;;;;;;;;;;;8.50;99.90;;;;;;4986037;28;20214;-78
2022/11/18 06:48:57;;;;;;;;;;;8.50;99.90;;;;;;4984088;28;19945;-70
2022/11/18 06:51:23;;;;;;;;;;;8.50;99.90;;;;;;4985489;28;20113;-70
2022/11/18 06:54:01;;;;;;;;;;;8.50;99.90;;;;;;4985659;28;20113;-69
2022/11/18 06:56:26;;;;;;;;;;;8.60;99.90;;;;;;4985929;28;19961;-70
2022/11/18 06:58:53;;;;;;;;;;;8.50;99.90;;;;;;4985927;28;19989;-69
2022/11/18 07:01:23;;;;;;;;;;;8.50;99.90;;;;;;4986136;28;19921;-70
2022/11/18 07:03:49;;;;;;;;;;;8.50;99.90;;;;;;4985791;28;19949;-71
2022/11/18 07:06:16;;;;;;;;;;;8.50;99.90;;;;;;4985382;28;19914;-70
2022/11/18 07:08:42;;;;;;;;;;;8.50;99.90;;;;;;4985885;28;20046;-70
2022/11/18 07:11:10;;;;;;;;;;;8.60;99.90;;;;;;4985917;28;19918;-69
2022/11/18 07:13:35;;;;;;;;;;;8.60;99.90;;;;;;4986232;28;19921;-70
2022/11/18 07:16:05;;;;;;;;;;;8.50;99.90;;;;;;4985511;28;19910;-69
2022/11/18 07:18:32;;;;;;;;;;;8.50;99.90;;;;;;4985546;28;19914;-70
2022/11/18 07:21:03;;;;;;;;;;;8.50;99.90;;;;;;4984661;28;19918;-70
2022/11/18 07:23:30;;;;;;;;;;;8.50;99.90;;;;;;4984592;28;19910;-70
2022/11/18 07:25:56;;;;;;;;;;;8.60;99.90;;;;;;4985890;28;19918;-71
2022/11/18 07:28:21;;;;;;;;;;;8.60;99.90;;;;;;4985766;28;20105;-70
2022/11/18 07:30:47;;;;;;;;;;;8.60;99.90;;;;;;4985352;28;19918;-69
2022/11/18 07:33:13;;;;;;;;;;;8.60;99.90;;;;;;4985376;28;19941;-69
2022/11/18 07:35:38;;;;;;;;;;;8.60;99.90;;;;;;4984834;28;20221;-69
2022/11/18 07:38:04;;;;;;;;;;;8.70;99.90;;;;;;4985044;28;20220;-69
2022/11/18 07:40:29;;;;;;;;;;;8.70;99.90;;;;;;4985361;28;20185;-70
2022/11/18 07:42:55;;;;;;;;;;;8.70;99.90;;;;;;4984517;28;19910;-70
2022/11/18 07:45:21;;;;;;;;;;;8.70;99.90;;;;;;4984097;28;19917;-70
2022/11/18 07:47:46;;;;;;;;;;;8.70;99.90;;;;;;4984974;28;19941;-69
2022/11/18 07:50:12;;;;;;;;;;;8.70;99.90;;;;;;4985034;28;19918;-69
2022/11/18 07:52:38;;;;;;;;;;;8.70;99.90;;;;;;4984072;28;19925;-70
2022/11/18 07:55:04;;;;;;;;;;;8.60;99.90;;;;;;4985365;28;19914;-70
2022/11/18 07:57:30;;;;;;;;;;;8.60;99.90;;;;;;4984760;28;19910;-70
2022/11/18 07:59:55;;;;;;;;;;;8.70;99.90;;;;;;4985258;28;19933;-70
2022/11/18 08:02:21;;;;;;;;;;;8.70;99.90;;;;;;4984859;28;20017;-69
2022/11/18 08:04:46;;;;;;;;;;;8.70;99.90;;;;;;4983551;28;19961;-69
2022/11/18 08:07:12;;;;;;;;;;;8.70;99.90;;;;;;4984100;28;19929;-69
2022/11/18 08:09:38;;;;;;;;;;;8.70;99.90;;;;;;4984857;28;19910;-69
2022/11/18 08:12:04;;;;;;;;;;;8.70;99.90;;;;;;4983792;28;19952;-69
2022/11/18 08:14:30;;;;;;;;;;;8.80;99.90;;;;;;4983652;28;19910;-70
2022/11/18 08:16:56;;;;;;;;;;;8.80;99.90;;;;;;4984485;28;19977;-70
2022/11/18 08:19:21;;;;;;;;;;;8.80;99.90;;;;;;4984368;28;20280;-69
2022/11/18 08:21:47;;;;;;;;;;;8.70;99.90;;;;;;4984519;28;20240;-69
2022/11/18 08:24:13;;;;;;;;;;;8.70;99.90;;;;;;4984624;28;19945;-70
2022/11/18 08:26:38;;;;;;;;;;;8.80;99.90;;;;;;4984170;28;20095;-70
2022/11/18 08:29:04;;;;;;;;;;;8.70;99.90;;;;;;4984392;28;19974;-69
2022/11/18 08:31:30;;;;;;;;;;;8.70;99.90;;;;;;4983289;28;19949;-70
2022/11/18 08:33:56;;;;;;;;;;;8.70;99.90;;;;;;4984354;28;19910;-69
2022/11/18 08:36:22;;;;;;;;;;;8.80;99.90;;;;;;4982522;28;20201;-70
2022/11/18 08:38:48;;;;;;;;;;;8.80;99.90;;;;;;4982920;28;19922;-70
2022/11/18 08:41:15;;;;;;;;;;;8.80;99.90;;;;;;4984355;28;19917;-70
2022/11/18 08:43:41;;;;;;;;;;;8.80;99.90;;;;;;4983094;28;19914;-69
2022/11/18 08:46:06;;;;;;;;;;;8.70;99.90;;;;;;4983882;28;19973;-69
2022/11/18 08:48:32;;;;;;;;;;;8.70;99.90;;;;;;4983097;28;19926;-69
2022/11/18 08:50:58;;;;;;;;;;;8.70;99.90;;;;;;4982128;28;19918;-69
2022/11/18 08:53:23;;;;;;;;;;;8.60;99.90;;;;;;4982245;28;20117;-69
2022/11/18 08:55:59;;;;;;;;;;;8.60;99.90;;;;;;4983332;28;19981;-70
2022/11/18 08:58:25;;;;;;;;;;;8.70;99.90;;;;;;4983316;28;19937;-70
2022/11/18 09:00:50;;;;;;;;;;;8.60;99.90;;;;;;4983212;28;20247;-70
2022/11/18 09:03:16;;;;;;;;;;;8.60;99.90;;;;;;4966091;28;19914;-70
2022/11/18 09:05:42;;;;;;;;;;;8.50;99.90;;;;;;4983207;28;20025;-70
2022/11/18 09:08:07;;;;;;;;;;;8.50;99.90;;;;;;4983903;28;20128;-70
2022/11/18 09:10:33;;;;;;;;;;;8.50;99.90;;;;;;4984155;28;19910;-70
2022/11/18 09:12:59;;;;;;;;;;;8.50;99.90;;;;;;4984246;28;19938;-70
2022/11/18 09:15:25;;;;;;;;;;;8.50;99.90;;;;;;4984015;28;19910;-70
2022/11/18 09:17:51;;;;;;;;;;;8.50;99.90;;;;;;4983753;28;19953;-70
2022/11/18 09:20:17;;;;;;;;;;;8.50;99.90;;;;;;4983647;28;19910;-70
2022/11/18 09:22:43;;;;;;;;;;;8.50;99.90;;;;;;4984057;28;19972;-70
2022/11/18 09:25:09;;;;;;;;;;;8.40;99.90;;;;;;4984124;28;20224;-71
2022/11/18 09:27:34;;;;;;;;;;;8.50;99.90;;;;;;4983480;28;19953;-70
2022/11/18 09:30:00;;;;;;;;;;;8.50;99.90;;;;;;4983809;28;19919;-70
2022/11/18 09:32:26;;;;;;;;;;;8.50;99.90;;;;;;4983874;28;19972;-70
2022/11/18 09:34:51;;;;;;;;;;;8.50;99.90;;;;;;4982030;28;19914;-70
2022/11/18 09:37:17;;;;;;;;;;;8.50;99.90;;;;;;4983264;28;19989;-69
2022/11/18 09:39:43;;;;;;;;;;;8.50;99.90;;;;;;4984247;28;19914;-71
2022/11/18 09:42:38;;;;;;;;;;;8.50;99.90;;;;;;4983769;28;19936;-71
2022/11/18 09:45:18;;;;;;;;;;;8.50;99.90;;;;;;4976219;28;19914;-74
2022/11/18 09:47:43;;;;;;;;;;;8.50;99.90;;;;;;4963033;29;19914;-70
2022/11/18 09:50:19;;;;;;;;;;;8.40;99.90;;;;;;4973347;28;20213;-70
2022/11/18 09:53:11;;;;;;;;;;;8.40;99.90;;;;;;4982665;28;19929;-71
2022/11/18 09:55:38;;;;;;;;;;;8.40;99.90;;;;;;4982869;28;19971;-71
2022/11/18 09:58:03;;;;;;;;;;;8.40;99.90;;;;;;4983714;28;20082;-71
2022/11/18 10:00:29;;;;;;;;;;;8.40;99.90;;;;;;4983912;28;19941;-71
2022/11/18 10:03:13;;;;;;;;;;;8.50;99.90;;;;;;4983613;28;19917;-71
2022/11/18 10:05:48;;;;;;;;;;;8.50;99.90;;;;;;4985257;28;19910;-71
2022/11/18 10:08:27;;;;;;;;;;;8.60;99.90;;;;;;4986375;28;20148;-71
2022/11/18 10:11:00;;;;;;;;;;;8.60;99.90;;;;;;4986823;28;19918;-71
2022/11/18 10:14:03;;;;;;;;;;;8.70;99.90;;;;;;4986622;28;19910;-71
2022/11/18 10:16:38;;;;;;;;;;;8.70;99.90;;;;;;4987178;28;20141;-71
2022/11/18 10:19:19;;;;;;;;;;;8.70;99.90;;;;;;4987288;28;20205;-71
2022/11/18 10:22:03;;;;;;;;;;;8.80;99.90;;;;;;4987128;28;19917;-72
2022/11/18 10:24:41;;;;;;;;;;;8.80;99.90;;;;;;4986363;28;19910;-71
2022/11/18 10:27:11;;;;;;;;;;;8.80;99.90;;;;;;4986034;28;20178;-72
2022/11/18 10:29:37;;;;;;;;;;;8.80;99.90;;;;;;4987296;28;19995;-71
2022/11/18 10:32:04;;;;;;;;;;;8.80;99.90;;;;;;4987227;28;20236;-71
2022/11/18 10:34:30;;;;;;;;;;;8.90;99.90;;;;;;4987237;28;19942;-71
2022/11/18 10:37:11;;;;;;;;;;;8.90;99.90;;;;;;4985597;28;19927;-71
2022/11/18 10:39:49;;;;;;;;;;;8.90;99.90;;;;;;5002657;28;19910;-71
2022/11/18 10:42:19;;;;;;;;;;;8.90;99.90;;;;;;4986185;28;20113;-71
2022/11/18 10:44:45;;;;;;;;;;;8.90;99.90;;;;;;4987235;28;19910;-71
2022/11/18 10:47:13;;;;;;;;;;;8.80;99.90;;;;;;4986632;28;20098;-71
2022/11/18 10:49:39;;;;;;;;;;;8.80;99.90;;;;;;4986525;28;19914;-71
2022/11/18 10:52:11;;;;;;;;;;;8.80;99.90;;;;;;4985666;28;19917;-71
2022/11/18 10:54:37;;;;;;;;;;;8.80;99.90;;;;;;4986874;28;19918;-71
2022/11/18 10:57:14;;;;;;;;;;;8.80;99.90;;;;;;4985500;28;20094;-70
2022/11/18 10:59:40;;;;;;;;;;;8.80;99.90;;;;;;4986111;28;19921;-71
2022/11/18 11:02:31;;;;;;;;;;;8.80;99.90;;;;;;4985203;28;19910;-71
2022/11/18 11:04:58;;;;;;;;;;;8.80;99.90;;;;;;4985015;28;19914;-71
2022/11/18 11:07:27;;;;;;;;;;;8.80;99.90;;;;;;4984490;28;20209;-71
2022/11/18 11:10:05;;;;;;;;;;;8.80;99.90;;;;;;4986126;28;20086;-72
2022/11/18 11:12:45;;;;;;;;;;;8.80;99.90;;;;;;4986180;28;19918;-72
2022/11/18 11:15:23;;;;;;;;;;;8.70;99.90;;;;;;4970843;28;19917;-71
2022/11/18 11:18:40;;;;;;;;;;;8.70;99.90;;;;;;4983250;28;19942;-72
2022/11/18 11:21:13;;;;;;;;;;;8.70;99.90;;;;;;4984645;28;19939;-71
2022/11/18 11:23:38;;;;;;;;;;;8.80;99.90;;;;;;4984762;28;19917;-71
2022/11/18 11:26:14;;;;;;;;;;;8.80;99.90;;;;;;4983612;28;19973;-71
2022/11/18 11:28:51;;;;;;;;;;;8.90;99.90;;;;;;4984998;28;19910;-71
2022/11/18 11:31:23;;;;;;;;;;;8.90;99.90;;;;;;4985036;28;19918;-71
2022/11/18 11:34:07;;;;;;;;;;;9.00;99.90;;;;;;4985122;28;19910;-72
2022/11/18 11:36:51;;;;;;;;;;;9.00;99.90;;;;;;4982209;28;19918;-71
2022/11/18 11:39:48;;;;;;;;;;;9.00;99.90;;;;;;4984153;28;19918;-71
2022/11/18 11:42:44;;;;;;;;;;;9.10;99.90;;;;;;4983780;28;19949;-71
2022/11/18 11:45:15;;;;;;;;;;;9.10;99.90;;;;;;4981006;28;19957;-72
2022/11/18 11:47:59;;;;;;;;;;;9.10;99.90;;;;;;4984700;28;19921;-72
2022/11/18 11:50:30;;;;;;;;;;;9.10;99.90;;;;;;4985126;28;19910;-72
2022/11/18 11:53:13;;;;;;;;;;;9.10;99.90;;;;;;4985072;28;19917;-72
2022/11/18 11:56:13;;;;;;;;;;;9.20;99.90;;;;;;4984240;28;19917;-72
2022/11/18 11:59:06;;;;;;;;;;;9.20;99.90;;;;;;4985312;28;19957;-71
2022/11/18 12:01:59;;;;;;;;;;;9.20;99.90;;;;;;4985127;28;20274;-72
2022/11/18 12:04:34;;;;;;;;;;;9.30;99.90;;;;;;4985312;28;20201;-72
2022/11/18 12:07:00;;;;;;;;;;;9.20;99.90;;;;;;4983961;28;19925;-71
2022/11/18 12:09:32;;;;;;;;;;;9.20;99.90;;;;;;4983599;28;20198;-71
2022/11/18 12:12:03;;;;;;;;;;;9.20;99.90;;;;;;4984998;28;19918;-71
2022/11/18 12:14:43;;;;;;;;;;;9.20;99.90;;;;;;4983998;28;19937;-72
2022/11/18 12:17:16;;;;;;;;;;;9.20;99.90;;;;;;4983726;28;19990;-71
2022/11/18 12:19:42;;;;;;;;;;;9.20;99.90;;;;;;4983882;28;19919;-72
2022/11/18 12:22:08;;;;;;;;;;;9.30;99.90;;;;;;4984950;28;19918;-72
2022/11/18 12:24:36;;;;;;;;;;;9.30;99.90;;;;;;4983924;28;19921;-71
2022/11/18 12:27:06;;;;;;;;;;;9.40;99.90;;;;;;4983782;28;19914;-71
2022/11/18 12:29:47;;;;;;;;;;;9.40;99.90;;;;;;4983219;28;19914;-71
2022/11/18 12:32:25;;;;;;;;;;;9.40;99.90;;;;;;4984782;28;19922;-71
2022/11/18 12:35:17;;;;;;;;;;;9.40;99.90;;;;;;4983595;28;19945;-72
2022/11/18 12:37:42;;;;;;;;;;;9.50;99.90;;;;;;4983312;28;20189;-72
2022/11/18 12:40:09;;;;;;;;;;;9.50;99.90;;;;;;4984859;28;20235;-72
2022/11/18 12:45:40;;;;;;;;;;;9.40;99.90;;;;;;4984568;28;19956;-71
2022/11/18 12:48:31;;;;;;;;;;;9.40;99.90;;;;;;4984083;28;19914;-71
2022/11/18 12:51:06;;;;;;;;;;;9.30;99.90;;;;;;4981245;28;19912;-72
2022/11/18 12:53:42;;;;;;;;;;;9.30;99.90;;;;;;4983087;28;19925;-71
2022/11/18 12:56:16;;;;;;;;;;;9.30;99.90;;;;;;4983997;28;20117;-72
2022/11/18 12:58:52;;;;;;;;;;;9.30;99.90;;;;;;4984166;28;20481;-71
2022/11/18 13:01:26;;;;;;;;;;;9.20;99.90;;;;;;4983045;28;19922;-71
2022/11/18 13:03:52;;;;;;;;;;;9.20;99.90;;;;;;4984243;28;19917;-72
2022/11/18 13:06:22;;;;;;;;;;;9.20;99.90;;;;;;4983626;28;19989;-72
2022/11/18 13:08:56;;;;;;;;;;;9.20;99.90;;;;;;4982853;28;20054;-72
2022/11/18 13:20:17;;;;;;;;;;;9.10;99.90;;;;;;4983614;28;19916;-71
2022/11/18 13:25:33;;;;;;;;;;;9.10;99.90;;;;;;4982905;28;19925;-71
2022/11/18 13:27:58;;;;;;;;;;;9.00;99.90;;;;;;4983625;28;19913;-71
2022/11/18 13:30:24;;;;;;;;;;;9.10;99.90;;;;;;4983797;28;19910;-71
2022/11/18 13:32:50;;;;;;;;;;;9.10;99.90;;;;;;4982743;28;19957;-71
2022/11/18 13:35:18;;;;;;;;;;;9.20;99.90;;;;;;4982354;28;19916;-71
2022/11/18 13:37:49;;;;;;;;;;;9.20;99.90;;;;;;4982316;28;19921;-71
2022/11/18 13:40:38;;;;;;;;;;;9.20;99.90;;;;;;4981707;28;20117;-72
2022/11/18 13:43:04;;;;;;;;;;;9.20;99.90;;;;;;4980671;28;19949;-71
2022/11/18 13:45:30;;;;;;;;;;;9.20;99.90;;;;;;4983619;28;19910;-71
2022/11/18 13:48:07;;;;;;;;;;;9.20;99.90;;;;;;4981851;28;20017;-72
2022/11/18 13:50:36;;;;;;;;;;;9.20;99.90;;;;;;4983366;28;19953;-71
2022/11/18 13:53:20;;;;;;;;;;;9.20;99.90;;;;;;4979747;28;19951;-71
2022/11/18 13:56:00;;;;;;;;;;;9.20;99.90;;;;;;4983809;28;20054;-72
2022/11/18 13:58:26;;;;;;;;;;;9.20;99.90;;;;;;4982128;28;19973;-71
2022/11/18 14:01:02;;;;;;;;;;;9.20;99.90;;;;;;4983145;28;19933;-72
2022/11/18 14:03:46;;;;;;;;;;;9.20;99.90;;;;;;4966916;28;20129;-71
2022/11/18 14:06:11;;;;;;;;;;;9.20;99.90;;;;;;4966957;28;19994;-71
2022/11/18 14:08:37;;;;;;;;;;;9.20;99.90;;;;;;4965772;28;20215;-71
2022/11/18 14:11:03;;;;;;;;;;;9.20;99.90;;;;;;4983275;28;20221;-71
2022/11/18 14:13:31;;;;;;;;;;;9.20;99.90;;;;;;4981999;28;19949;-72
2022/11/18 14:16:00;;;;;;;;;;;9.20;99.90;;;;;;4983130;28;19984;-71
2022/11/18 14:18:33;;;;;;;;;;;9.20;99.90;;;;;;4981908;28;19917;-72
2022/11/18 14:20:59;;;;;;;;;;;9.20;99.90;;;;;;4946855;29;20198;-72
2022/11/18 14:23:32;;;;;;;;;;;9.20;99.90;;;;;;4963857;29;19910;-72
2022/11/18 14:25:59;;;;;;;;;;;9.20;99.90;;;;;;4962463;29;19923;-72
2022/11/18 14:28:32;;;;;;;;;;;9.20;99.90;;;;;;4978340;28;19973;-72
2022/11/18 14:31:23;;;;;;;;;;;9.20;99.90;;;;;;4963643;29;19965;-72
2022/11/18 14:34:13;;;;;;;;;;;9.20;99.90;;;;;;4962591;29;19949;-71
2022/11/18 14:36:39;;;;;;;;;;;9.20;99.90;;;;;;4963135;28;19914;-72
2022/11/18 14:39:31;;;;;;;;;;;9.20;99.90;;;;;;4963534;29;20169;-72
2022/11/18 14:41:57;;;;;;;;;;;9.30;99.90;;;;;;4978269;28;19914;-72
2022/11/18 14:44:25;;;;;;;;;;;9.30;99.90;;;;;;4963559;28;19918;-72
2022/11/18 14:46:52;;;;;;;;;;;9.20;99.90;;;;;;4962097;29;19926;-72
2022/11/18 14:49:22;;;;;;;;;;;9.20;99.90;;;;;;4967067;28;19956;-72
2022/11/18 14:51:47;;;;;;;;;;;9.20;99.90;;;;;;4983480;28;19953;-71
2022/11/18 14:54:14;;;;;;;;;;;9.20;99.90;;;;;;4986500;28;19949;-72
2022/11/18 14:56:40;;;;;;;;;;;9.20;99.90;;;;;;4986213;28;19910;-72
2022/11/18 14:59:05;;;;;;;;;;;9.20;99.90;;;;;;4986200;28;19952;-72
2022/11/18 15:01:31;;;;;;;;;;;9.20;99.90;;;;;;4986279;28;19914;-71
2022/11/18 15:03:57;;;;;;;;;;;9.10;99.90;;;;;;4985834;28;19978;-72
2022/11/18 15:06:23;;;;;;;;;;;9.10;99.90;;;;;;4985421;28;19922;-71
2022/11/18 15:08:49;;;;;;;;;;;9.00;99.90;;;;;;4986049;28;20086;-71
2022/11/18 15:11:15;;;;;;;;;;;9.00;99.90;;;;;;4984725;28;19914;-71
2022/11/18 15:13:41;;;;;;;;;;;9.00;99.90;;;;;;4985848;28;19910;-71